createdAt,value
2022-10-22T00:01:09.800Z,26.55
2022-10-22T00:03:37.873Z,17.83
2022-10-22T00:06:06.531Z,31.85
2022-10-22T00:08:34.679Z,17.10
2022-10-22T00:11:12.520Z,16.13
2022-10-22T00:13:41.348Z,15.93
2022-10-22T00:16:09.621Z,15.88
2022-10-22T00:18:37.880Z,16.15
2022-10-22T00:21:06.694Z,15.73
2022-10-22T00:23:34.901Z,17.27
2022-10-22T00:26:02.769Z,17.65
2022-10-22T00:28:30.710Z,52.00
2022-10-22T00:31:00.297Z,49.10
2022-10-22T00:33:29.809Z,36.78
2022-10-22T00:35:58.318Z,23.63
2022-10-22T00:38:26.281Z,22.50
2022-10-22T00:40:54.479Z,17.67
2022-10-22T00:43:22.714Z,16.42
2022-10-22T00:45:50.704Z,18.05
2022-10-22T00:48:30.225Z,16.90
2022-10-22T00:51:08.542Z,17.13
2022-10-22T00:53:51.503Z,17.52
2022-10-22T00:56:21.033Z,23.83
2022-10-22T00:58:56.024Z,28.80
2022-10-22T01:01:30.217Z,31.83
2022-10-22T01:03:58.876Z,27.48
2022-10-22T01:06:30.918Z,32.13
2022-10-22T01:09:01.785Z,30.05
2022-10-22T01:12:02.556Z,41.88
2022-10-22T01:15:05.993Z,34.38
2022-10-22T01:17:49.003Z,18.30
2022-10-22T01:20:39.559Z,15.93
2022-10-22T01:23:34.964Z,14.38
2022-10-22T01:26:33.876Z,15.90
2022-10-22T01:29:11.486Z,15.00
2022-10-22T01:31:45.367Z,22.08
2022-10-22T01:34:17.610Z,21.55
2022-10-22T01:36:48.316Z,34.20
2022-10-22T01:39:17.797Z,20.60
2022-10-22T01:41:46.398Z,20.73
2022-10-22T01:44:32.327Z,29.17
2022-10-22T01:47:24.959Z,29.35
2022-10-22T01:50:15.916Z,31.02
2022-10-22T01:53:06.134Z,14.55
2022-10-22T01:56:02.745Z,15.43
2022-10-22T01:59:02.052Z,16.17
2022-10-22T02:03:06.119Z,24.95
2022-10-22T02:05:46.146Z,34.20
2022-10-22T02:08:20.372Z,42.70
2022-10-22T02:10:49.820Z,21.92
2022-10-22T02:13:37.849Z,13.80
2022-10-22T02:16:09.956Z,14.55
2022-10-22T02:18:42.905Z,15.05
2022-10-22T02:21:11.250Z,12.98
2022-10-22T02:23:39.682Z,16.65
2022-10-22T02:26:16.646Z,16.67
2022-10-22T02:29:00.111Z,13.88
2022-10-22T02:31:34.513Z,14.95
2022-10-22T02:34:10.282Z,22.73
2022-10-22T02:36:40.695Z,13.52
2022-10-22T02:39:11.483Z,13.95
2022-10-22T02:41:39.875Z,11.50
2022-10-22T02:44:10.221Z,14.05
2022-10-22T02:46:40.375Z,16.02
2022-10-22T02:49:08.365Z,15.75
2022-10-22T02:51:36.596Z,21.05
2022-10-22T02:54:04.879Z,17.30
2022-10-22T02:56:33.231Z,22.73
2022-10-22T02:59:01.139Z,21.13
2022-10-22T03:01:29.125Z,23.65
2022-10-22T03:03:57.058Z,24.42
2022-10-22T03:08:54.291Z,21.05
2022-10-22T03:11:22.253Z,14.80
2022-10-22T03:13:50.184Z,23.08
2022-10-22T03:16:18.080Z,31.50
2022-10-22T03:18:46.054Z,34.28
2022-10-22T03:21:24.115Z,27.77
2022-10-22T03:23:52.651Z,28.60
2022-10-22T03:26:21.324Z,41.53
2022-10-22T03:28:49.481Z,34.97
2022-10-22T03:31:17.513Z,34.28
2022-10-22T03:33:45.344Z,27.75
2022-10-22T03:36:13.458Z,31.50
2022-10-22T03:38:42.115Z,24.27
2022-10-22T03:41:10.514Z,26.63
2022-10-22T03:43:39.484Z,24.88
2022-10-22T03:46:07.911Z,29.90
2022-10-22T03:48:35.922Z,23.80
2022-10-22T03:51:04.040Z,30.48
2022-10-22T03:53:32.149Z,29.90
2022-10-22T03:56:00.036Z,29.45
2022-10-22T03:58:28.034Z,34.35
2022-10-22T04:00:55.959Z,29.10
2022-10-22T04:03:23.981Z,25.40
2022-10-22T04:05:51.913Z,20.33
2022-10-22T04:08:19.816Z,24.42
2022-10-22T04:10:53.753Z,29.52
2022-10-22T04:13:21.801Z,26.92
2022-10-22T04:15:49.889Z,28.60
2022-10-22T04:18:22.182Z,38.05
2022-10-22T04:20:52.494Z,30.73
2022-10-22T04:23:20.453Z,31.92
2022-10-22T04:25:48.343Z,24.27
2022-10-22T04:28:16.358Z,27.58
2022-10-22T04:30:44.248Z,23.98
2022-10-22T04:33:12.186Z,19.35
2022-10-22T04:35:40.409Z,28.67
2022-10-22T04:38:08.495Z,23.67
2022-10-22T04:40:36.514Z,28.23
2022-10-22T04:43:04.466Z,31.73
2022-10-22T04:45:36.518Z,25.58
2022-10-22T04:48:04.704Z,25.98
2022-10-22T04:50:32.572Z,19.42
2022-10-22T04:53:00.633Z,25.08
2022-10-22T04:58:02.065Z,25.83
2022-10-22T05:00:30.018Z,23.42
2022-10-22T05:02:58.049Z,46.72
2022-10-22T05:05:26.096Z,118.72
2022-10-22T05:07:54.077Z,49.55
2022-10-22T05:10:22.062Z,32.00
2022-10-22T05:12:50.319Z,23.70
2022-10-22T05:15:18.279Z,23.45
2022-10-22T05:17:47.198Z,18.05
2022-10-22T05:20:15.193Z,27.67
2022-10-22T05:22:43.240Z,27.73
2022-10-22T05:25:12.409Z,23.60
2022-10-22T05:30:08.894Z,27.27
2022-10-22T05:32:36.970Z,20.33
2022-10-22T05:35:05.278Z,26.52
2022-10-22T05:37:33.279Z,33.33
2022-10-22T05:40:12.529Z,29.50
2022-10-22T05:42:48.278Z,30.08
2022-10-22T05:45:16.413Z,25.63
2022-10-22T05:47:44.450Z,38.25
2022-10-22T05:50:12.286Z,36.20
2022-10-22T05:52:40.568Z,48.90
2022-10-22T05:55:08.904Z,33.38
2022-10-22T05:57:37.113Z,26.60
2022-10-22T06:00:06.188Z,62.33
2022-10-22T06:02:34.481Z,34.88
2022-10-22T06:05:02.784Z,46.83
2022-10-22T06:07:31.041Z,27.83
2022-10-22T06:09:59.786Z,37.67
2022-10-22T06:12:28.026Z,36.92
2022-10-22T06:14:56.070Z,45.10
2022-10-22T06:17:24.087Z,32.15
2022-10-22T06:19:52.066Z,25.48
2022-10-22T06:22:20.229Z,26.77
2022-10-22T06:24:48.234Z,25.13
2022-10-22T06:27:16.282Z,26.73
2022-10-22T06:29:44.238Z,24.50
2022-10-22T06:32:12.254Z,15.75
2022-10-22T06:34:40.857Z,23.10
2022-10-22T06:37:10.901Z,20.75
2022-10-22T06:39:39.623Z,22.48
2022-10-22T06:42:07.758Z,20.73
2022-10-22T06:44:35.793Z,24.55
2022-10-22T06:47:04.359Z,31.77
2022-10-22T06:49:32.556Z,17.83
2022-10-22T06:52:00.713Z,62.95
2022-10-22T06:54:28.717Z,17.60
2022-10-22T06:56:56.727Z,22.30
2022-10-22T06:59:24.712Z,20.73
2022-10-22T07:01:52.986Z,26.30
2022-10-22T07:04:20.897Z,18.63
2022-10-22T07:06:48.918Z,18.40
2022-10-22T07:11:50.318Z,16.52
2022-10-22T07:14:18.361Z,16.10
2022-10-22T07:16:47.154Z,22.15
2022-10-22T07:19:15.313Z,17.88
2022-10-22T07:21:43.314Z,20.27
2022-10-22T07:24:11.531Z,21.67
2022-10-22T07:26:39.769Z,14.02
2022-10-22T07:29:08.223Z,14.52
2022-10-22T07:31:36.612Z,13.35
2022-10-22T07:34:05.035Z,17.98
2022-10-22T07:36:34.031Z,14.88
2022-10-22T07:39:03.076Z,12.98
2022-10-22T07:41:31.863Z,14.63
2022-10-22T07:44:00.140Z,15.32
2022-10-22T07:46:28.563Z,14.48
2022-10-22T07:48:56.823Z,16.63
2022-10-22T07:51:24.845Z,13.48
2022-10-22T07:53:52.906Z,13.20
2022-10-22T07:56:21.112Z,16.30
2022-10-22T07:58:49.207Z,15.30
2022-10-22T08:01:17.546Z,18.17
2022-10-22T08:03:46.033Z,12.65
2022-10-22T08:06:15.026Z,14.40
2022-10-22T08:08:45.952Z,17.33
2022-10-22T08:11:14.354Z,15.07
2022-10-22T08:13:45.323Z,16.50
2022-10-22T08:16:14.524Z,20.60
2022-10-22T08:18:42.750Z,15.65
2022-10-22T08:21:12.608Z,19.15
2022-10-22T08:23:40.667Z,13.80
2022-10-22T08:26:09.494Z,13.38
2022-10-22T08:28:38.029Z,12.75
2022-10-22T08:31:07.938Z,14.18
2022-10-22T08:33:36.873Z,15.25
2022-10-22T08:36:06.192Z,221.93
2022-10-22T08:38:35.681Z,43.85
2022-10-22T08:41:16.402Z,19.67
2022-10-22T08:43:58.271Z,24.48
2022-10-22T08:46:47.343Z,12.32
2022-10-22T08:49:21.509Z,15.38
2022-10-22T08:51:50.822Z,14.10
2022-10-22T08:54:54.019Z,13.65
2022-10-22T08:57:28.304Z,21.30
2022-10-22T09:00:15.290Z,17.67
2022-10-22T09:05:20.865Z,18.42
2022-10-22T09:07:50.739Z,16.40
2022-10-22T09:10:22.233Z,13.85
2022-10-22T09:12:50.763Z,13.10
2022-10-22T09:15:20.379Z,14.02
2022-10-22T09:18:14.950Z,13.20
2022-10-22T09:20:50.225Z,15.95
2022-10-22T09:23:28.489Z,11.82
2022-10-22T09:25:57.990Z,9.40
2022-10-22T09:28:26.936Z,9.40
2022-10-22T09:30:55.175Z,11.05
2022-10-22T09:33:28.705Z,31.58
2022-10-22T09:36:07.176Z,9.38
2022-10-22T09:38:41.801Z,9.68
2022-10-22T09:41:09.965Z,11.85
2022-10-22T09:43:38.279Z,13.02
2022-10-22T09:46:14.882Z,9.55
2022-10-22T09:48:54.314Z,8.95
2022-10-22T09:51:37.008Z,9.95
2022-10-22T09:54:20.144Z,12.52
2022-10-22T09:56:53.963Z,15.75
2022-10-22T09:59:31.386Z,13.18
2022-10-22T10:02:13.612Z,9.32
2022-10-22T10:04:52.724Z,7.80
2022-10-22T10:07:23.905Z,9.45
2022-10-22T10:09:53.821Z,11.90
2022-10-22T10:15:34.276Z,11.25
2022-10-22T10:18:15.004Z,9.32
2022-10-22T10:20:59.811Z,8.38
2022-10-22T10:23:55.869Z,11.38
2022-10-22T10:26:41.771Z,10.55
2022-10-22T10:32:50.452Z,12.85
2022-10-22T10:35:37.711Z,13.50
2022-10-22T10:38:06.140Z,12.63
2022-10-22T10:43:37.184Z,13.98
2022-10-22T10:46:11.880Z,17.40
2022-10-22T10:48:55.929Z,12.35
2022-10-22T10:51:42.360Z,12.95
2022-10-22T10:54:35.935Z,10.55
2022-10-22T10:57:19.734Z,13.80
2022-10-22T11:00:07.482Z,17.70
2022-10-22T11:05:37.956Z,12.68
2022-10-22T11:08:11.874Z,13.73
2022-10-22T11:11:01.187Z,15.13
2022-10-22T11:13:36.953Z,12.38
2022-10-22T11:16:21.059Z,10.98
2022-10-22T11:18:59.118Z,12.00
2022-10-22T11:22:05.359Z,11.23
2022-10-22T11:24:41.573Z,9.60
2022-10-22T11:27:30.313Z,12.13
2022-10-22T11:30:06.778Z,10.35
2022-10-22T11:32:35.280Z,10.85
2022-10-22T11:37:35.734Z,11.77
2022-10-22T11:40:29.844Z,11.18
2022-10-22T11:43:03.724Z,10.15
2022-10-22T11:45:36.618Z,9.57
2022-10-22T11:48:17.151Z,11.55
2022-10-22T11:50:57.666Z,10.73
2022-10-22T11:53:26.017Z,10.10
2022-10-22T11:55:59.945Z,10.32
2022-10-22T11:58:33.861Z,10.57
2022-10-22T12:01:01.826Z,9.85
2022-10-22T12:03:32.462Z,10.50
2022-10-22T12:06:21.080Z,9.65
2022-10-22T12:08:49.087Z,10.13
2022-10-22T12:11:20.586Z,10.32
2022-10-22T12:14:12.676Z,10.75
2022-10-22T12:17:01.233Z,11.00
2022-10-22T12:19:35.145Z,10.85
2022-10-22T12:22:25.929Z,8.82
2022-10-22T12:24:57.444Z,13.50
2022-10-22T12:27:30.189Z,11.40
2022-10-22T12:30:00.698Z,15.77
2022-10-22T12:32:37.657Z,9.68
2022-10-22T12:35:23.991Z,10.27
2022-10-22T12:37:54.662Z,13.43
2022-10-22T12:40:26.426Z,10.77
2022-10-22T12:42:57.755Z,13.75
2022-10-22T12:45:31.065Z,10.43
2022-10-22T12:48:05.476Z,11.60
2022-10-22T12:50:42.830Z,9.60
2022-10-22T12:53:31.949Z,16.35
2022-10-22T12:56:04.410Z,12.70
2022-10-22T12:58:55.747Z,14.38
2022-10-22T13:01:27.205Z,11.88
2022-10-22T13:04:13.543Z,15.68
2022-10-22T13:06:45.827Z,11.63
2022-10-22T13:09:19.671Z,12.75
2022-10-22T13:12:04.977Z,14.82
2022-10-22T13:14:35.945Z,10.77
2022-10-22T13:17:39.280Z,14.20
2022-10-22T13:20:21.006Z,12.35
2022-10-22T13:23:06.007Z,14.10
2022-10-22T13:25:37.455Z,12.07
2022-10-22T13:28:20.301Z,13.48
2022-10-22T13:31:24.907Z,10.80
2022-10-22T13:34:00.654Z,14.35
2022-10-22T13:36:30.562Z,16.70
2022-10-22T13:38:59.143Z,16.02
2022-10-22T13:44:00.480Z,17.58
2022-10-22T13:46:29.787Z,11.68
2022-10-22T13:49:00.095Z,14.57
2022-10-22T13:51:36.496Z,11.40
2022-10-22T13:54:10.847Z,13.85
2022-10-22T13:56:39.094Z,15.57
2022-10-22T13:59:07.081Z,12.95
2022-10-22T14:01:36.541Z,14.65
2022-10-22T14:04:07.675Z,12.60
2022-10-22T14:09:15.487Z,14.30
2022-10-22T14:11:44.274Z,15.88
2022-10-22T14:16:43.494Z,19.45
2022-10-22T14:19:17.013Z,20.63
2022-10-22T14:21:45.933Z,32.10
2022-10-22T14:24:14.543Z,70.22
2022-10-22T14:26:43.308Z,44.90
2022-10-22T14:31:44.392Z,18.85
2022-10-22T14:34:15.936Z,20.00
2022-10-22T14:36:44.941Z,20.48
2022-10-22T14:39:14.058Z,16.50
2022-10-22T14:41:43.366Z,17.13
2022-10-22T14:44:15.062Z,18.80
2022-10-22T14:46:44.679Z,14.85
2022-10-22T14:49:13.469Z,17.40
2022-10-22T14:51:42.458Z,13.45
2022-10-22T14:54:11.152Z,19.33
2022-10-22T14:56:39.699Z,23.88
2022-10-22T14:59:08.287Z,22.00
2022-10-22T15:04:05.564Z,50.03
2022-10-22T15:06:34.366Z,45.08
2022-10-22T15:11:30.833Z,53.47
2022-10-22T15:13:59.706Z,60.17
2022-10-22T15:16:28.128Z,53.88
2022-10-22T15:18:57.554Z,53.50
2022-10-22T15:21:26.371Z,213.23
2022-10-22T15:23:54.824Z,50.55
2022-10-22T15:28:51.776Z,45.20
2022-10-22T15:31:45.385Z,60.47
2022-10-22T15:34:18.497Z,92.90
2022-10-22T15:36:47.142Z,88.88
2022-10-22T15:39:16.615Z,109.78
2022-10-22T15:41:45.184Z,104.80
2022-10-22T15:44:25.219Z,82.85
2022-10-22T15:46:56.839Z,83.43
2022-10-22T15:49:27.607Z,52.58
2022-10-22T15:51:56.784Z,71.80
2022-10-22T15:54:28.997Z,65.75
2022-10-22T15:56:59.613Z,61.70
2022-10-22T15:59:28.405Z,68.78
2022-10-22T16:01:56.383Z,60.22
2022-10-22T16:04:24.865Z,60.67
2022-10-22T16:06:53.862Z,67.90
2022-10-22T16:09:24.661Z,70.68
2022-10-22T16:11:55.045Z,58.33
2022-10-22T16:14:24.406Z,59.72
2022-10-22T16:16:55.826Z,53.45
2022-10-22T16:19:25.447Z,64.70
2022-10-22T16:21:56.022Z,58.05
2022-10-22T16:24:24.806Z,68.75
2022-10-22T16:26:53.552Z,80.43
2022-10-22T16:29:22.128Z,77.75
2022-10-22T16:31:51.033Z,110.00
2022-10-22T16:34:19.552Z,65.18
2022-10-22T16:36:49.288Z,90.55
2022-10-22T16:39:17.969Z,60.60
2022-10-22T16:44:15.788Z,229.10
2022-10-22T16:49:12.835Z,89.38
2022-10-22T16:51:41.395Z,58.70
2022-10-22T16:54:12.628Z,74.30
2022-10-22T16:59:23.924Z,66.18
2022-10-22T17:01:52.882Z,74.60
2022-10-22T17:06:51.629Z,109.85
2022-10-22T17:09:19.800Z,109.93
2022-10-22T17:11:53.123Z,131.18
2022-10-22T17:14:21.597Z,160.80
2022-10-22T17:16:53.812Z,129.45
2022-10-22T17:19:23.168Z,114.78
2022-10-22T17:21:51.663Z,164.35
2022-10-22T17:24:20.310Z,98.55
2022-10-22T17:26:48.961Z,89.05
2022-10-22T17:29:18.353Z,124.18
2022-10-22T17:31:46.787Z,138.25
2022-10-22T17:36:46.146Z,91.15
2022-10-22T17:39:18.187Z,45.35
2022-10-22T17:41:47.133Z,38.05
2022-10-22T17:44:16.440Z,43.17
2022-10-22T17:46:45.672Z,54.03
2022-10-22T17:49:21.478Z,45.63
2022-10-22T17:51:50.286Z,74.70
2022-10-22T17:56:46.925Z,118.00
2022-10-22T17:59:17.453Z,122.53
2022-10-22T18:01:47.360Z,149.50
2022-10-22T18:04:18.582Z,126.07
2022-10-22T18:06:48.425Z,151.48
2022-10-22T18:09:19.397Z,116.07
2022-10-22T18:11:50.485Z,152.93
2022-10-22T18:14:21.313Z,120.72
2022-10-22T18:16:51.373Z,68.97
2022-10-22T18:19:23.537Z,62.72
2022-10-22T18:21:52.601Z,104.50
2022-10-22T18:26:49.633Z,68.43
2022-10-22T18:29:21.144Z,98.68
2022-10-22T18:31:50.332Z,47.05
2022-10-22T18:34:21.768Z,44.28
2022-10-22T18:36:52.681Z,25.63
2022-10-22T18:39:21.188Z,27.20
2022-10-22T18:41:49.780Z,48.45
2022-10-22T18:44:18.743Z,62.63
2022-10-22T18:49:19.210Z,87.57
2022-10-22T18:51:53.034Z,42.05
2022-10-22T18:54:23.849Z,36.20
2022-10-22T18:56:56.302Z,63.17
2022-10-22T18:59:27.906Z,56.13
2022-10-22T19:01:59.970Z,65.70
2022-10-22T19:04:34.072Z,96.43
2022-10-22T19:07:04.138Z,98.53
2022-10-22T19:09:32.815Z,45.80
2022-10-22T19:12:01.546Z,43.20
2022-10-22T19:14:30.450Z,30.00
2022-10-22T19:16:59.237Z,34.08
2022-10-22T19:19:28.076Z,33.65
2022-10-22T19:24:26.666Z,61.30
2022-10-22T19:26:55.190Z,82.25
2022-10-22T19:29:23.956Z,67.07
2022-10-22T19:31:52.632Z,79.35
2022-10-22T19:34:21.312Z,73.93
2022-10-22T19:36:52.108Z,31.00
2022-10-22T19:39:20.911Z,20.35
2022-10-22T19:41:49.928Z,77.47
2022-10-22T19:46:47.289Z,144.90
2022-10-22T19:49:19.011Z,72.55
2022-10-22T19:51:50.614Z,155.55
2022-10-22T19:54:20.866Z,78.90
2022-10-22T19:56:50.414Z,73.05
2022-10-22T19:59:21.096Z,84.75
2022-10-22T20:01:49.770Z,97.22
2022-10-22T20:04:19.173Z,99.78
2022-10-22T20:06:47.845Z,106.55
2022-10-22T20:09:16.569Z,94.38
2022-10-22T20:14:14.708Z,93.97
2022-10-22T20:16:44.206Z,95.47
2022-10-22T20:19:16.496Z,95.72
2022-10-22T20:21:48.804Z,115.35
2022-10-22T20:24:17.649Z,111.88
2022-10-22T20:26:47.547Z,58.28
2022-10-22T20:29:16.890Z,34.95
2022-10-22T20:31:46.541Z,33.28
2022-10-22T20:34:15.353Z,51.78
2022-10-22T20:36:43.464Z,25.30
2022-10-22T20:39:14.721Z,29.90
2022-10-22T20:41:43.530Z,31.08
2022-10-22T20:44:15.723Z,28.40
2022-10-22T20:46:44.755Z,26.33
2022-10-22T20:49:18.419Z,23.40
2022-10-22T20:51:47.176Z,27.55
2022-10-22T20:54:15.751Z,25.02
2022-10-22T20:56:44.239Z,28.42
2022-10-22T20:59:13.084Z,46.83
2022-10-22T21:01:45.477Z,52.35
2022-10-22T21:04:14.732Z,45.65
2022-10-22T21:06:43.525Z,55.75
2022-10-22T21:11:43.712Z,80.88
2022-10-22T21:14:14.523Z,57.33
2022-10-22T21:16:45.714Z,56.17
2022-10-22T21:19:13.622Z,57.88
2022-10-22T21:21:41.643Z,56.70
2022-10-22T21:24:10.085Z,56.45
2022-10-22T21:26:42.644Z,56.22
2022-10-22T21:29:12.601Z,61.80
2022-10-22T21:31:40.705Z,54.20
2022-10-22T21:34:08.638Z,62.38
2022-10-22T21:36:36.886Z,59.58
2022-10-22T21:39:04.873Z,79.20
2022-10-22T21:41:33.667Z,56.38
2022-10-22T21:46:30.033Z,50.40
2022-10-22T21:49:02.183Z,50.97
2022-10-22T21:51:32.819Z,53.72
2022-10-22T21:54:00.985Z,49.15
2022-10-22T21:56:32.963Z,36.33
2022-10-22T21:59:02.550Z,33.50
2022-10-22T22:01:31.015Z,39.20
2022-10-22T22:03:59.524Z,38.65
2022-10-22T22:06:33.177Z,52.42
2022-10-22T22:09:04.279Z,57.30
2022-10-22T22:11:32.905Z,65.60
2022-10-22T22:14:00.926Z,62.45
2022-10-22T22:16:31.606Z,47.97
2022-10-22T22:19:01.047Z,58.35
2022-10-22T22:21:29.830Z,58.90
2022-10-22T22:23:58.618Z,47.65
2022-10-22T22:26:30.035Z,50.20
2022-10-22T22:28:59.847Z,54.08
2022-10-22T22:31:30.489Z,51.22
2022-10-22T22:34:00.784Z,42.80
2022-10-22T22:36:33.793Z,44.10
2022-10-22T22:39:01.798Z,40.55
2022-10-22T22:41:29.726Z,38.92
2022-10-22T22:43:57.698Z,36.55
2022-10-22T22:46:27.239Z,37.88
2022-10-22T22:48:55.201Z,50.50
2022-10-22T22:51:23.404Z,45.80
2022-10-22T22:53:51.631Z,45.22
2022-10-22T22:56:23.609Z,47.33
2022-10-22T22:58:51.999Z,42.47
2022-10-22T23:01:22.835Z,43.50
2022-10-22T23:03:56.622Z,48.70
2022-10-22T23:06:26.127Z,43.20
2022-10-22T23:08:55.554Z,44.83
2022-10-22T23:11:25.396Z,33.75
2022-10-22T23:13:56.095Z,37.88
2022-10-22T23:16:26.716Z,34.15
2022-10-22T23:18:56.081Z,38.35
2022-10-22T23:21:30.007Z,33.78
2022-10-22T23:24:01.290Z,39.95
2022-10-22T23:26:34.881Z,33.35
2022-10-22T23:29:05.846Z,40.83
2022-10-22T23:31:34.549Z,44.25
2022-10-22T23:34:02.532Z,45.05
2022-10-22T23:36:30.665Z,60.58
2022-10-22T23:38:58.512Z,194.10
2022-10-22T23:41:26.470Z,376.08
2022-10-22T23:43:54.511Z,134.48
2022-10-22T23:46:22.633Z,100.05
2022-10-22T23:48:50.600Z,71.72
2022-10-22T23:51:18.580Z,85.15
2022-10-22T23:53:47.610Z,126.82
2022-10-22T23:56:18.392Z,170.18
2022-10-22T23:58:51.809Z,118.15
